createdAt,value
2023-03-20T00:01:17.646Z,9.83
2023-03-20T00:03:44.513Z,9.87
2023-03-20T00:06:25.658Z,9.81
2023-03-20T00:08:54.293Z,9.85
2023-03-20T00:11:31.422Z,9.85
2023-03-20T00:14:00.992Z,9.90
2023-03-20T00:16:32.204Z,9.87
2023-03-20T00:18:59.388Z,9.78
2023-03-20T00:21:27.379Z,9.75
2023-03-20T00:23:54.892Z,9.73
2023-03-20T00:26:25.798Z,9.72
2023-03-20T00:28:53.002Z,9.71
2023-03-20T00:31:26.871Z,9.71
2023-03-20T00:33:58.864Z,9.73
2023-03-20T00:36:25.591Z,9.71
2023-03-20T00:38:53.135Z,9.76
2023-03-20T00:41:38.756Z,9.74
2023-03-20T00:44:14.533Z,9.77
2023-03-20T00:46:41.710Z,9.72
2023-03-20T00:49:11.860Z,9.73
2023-03-20T00:51:39.815Z,9.73
2023-03-20T00:54:13.255Z,9.75
2023-03-20T00:56:44.198Z,9.69
2023-03-20T00:59:19.314Z,9.72
2023-03-20T01:01:46.907Z,9.70
2023-03-20T01:04:17.162Z,9.71
2023-03-20T01:06:44.757Z,9.72
2023-03-20T01:09:11.602Z,9.71
2023-03-20T01:11:39.879Z,9.74
2023-03-20T01:14:14.730Z,9.73
2023-03-20T01:16:42.603Z,9.73
2023-03-20T01:19:16.962Z,9.73
2023-03-20T01:21:44.172Z,9.72
2023-03-20T01:24:11.022Z,9.67
2023-03-20T01:26:40.150Z,9.70
2023-03-20T01:29:24.779Z,9.66
2023-03-20T01:31:52.625Z,9.66
2023-03-20T01:34:21.166Z,9.65
2023-03-20T01:36:57.023Z,9.64
2023-03-20T01:39:32.529Z,9.62
2023-03-20T01:42:00.006Z,9.58
2023-03-20T01:44:30.848Z,9.55
2023-03-20T01:47:01.403Z,9.36
2023-03-20T01:49:28.786Z,9.31
2023-03-20T01:51:59.237Z,9.25
2023-03-20T01:54:34.628Z,9.17
2023-03-20T01:57:10.762Z,9.08
2023-03-20T01:59:47.189Z,9.07
2023-03-20T02:02:28.428Z,9.10
2023-03-20T02:04:59.931Z,9.05
2023-03-20T02:07:26.935Z,8.97
2023-03-20T02:10:14.542Z,8.99
2023-03-20T02:12:57.201Z,9.00
2023-03-20T02:15:32.183Z,8.97
2023-03-20T02:18:08.425Z,8.91
2023-03-20T02:21:10.673Z,8.81
2023-03-20T02:23:54.787Z,8.75
2023-03-20T02:27:02.607Z,8.74
2023-03-20T02:29:50.806Z,8.63
2023-03-20T02:32:44.732Z,8.57
2023-03-20T02:35:43.762Z,8.54
2023-03-20T02:38:41.241Z,8.48
2023-03-20T02:41:28.285Z,8.43
2023-03-20T02:44:26.008Z,8.41
2023-03-20T02:47:04.069Z,8.45
2023-03-20T02:49:54.935Z,8.38
2023-03-20T02:52:57.153Z,8.43
2023-03-20T02:55:40.039Z,8.46
2023-03-20T02:58:25.990Z,8.53
2023-03-20T03:00:59.201Z,8.44
2023-03-20T03:03:34.362Z,8.39
2023-03-20T03:06:18.164Z,8.50
2023-03-20T03:08:50.090Z,8.29
2023-03-20T03:11:17.628Z,8.46
2023-03-20T03:13:52.892Z,8.37
2023-03-20T03:16:32.387Z,8.26
2023-03-20T03:19:08.548Z,8.39
2023-03-20T03:21:40.212Z,8.26
2023-03-20T03:24:26.754Z,8.30
2023-03-20T03:27:03.696Z,8.35
2023-03-20T03:29:34.124Z,8.40
2023-03-20T03:32:02.888Z,8.42
2023-03-20T03:34:29.814Z,8.41
2023-03-20T03:37:08.160Z,8.37
2023-03-20T03:39:45.792Z,8.28
2023-03-20T03:42:27.975Z,8.26
2023-03-20T03:45:18.850Z,8.24
2023-03-20T03:47:52.693Z,8.35
2023-03-20T03:50:48.979Z,8.21
2023-03-20T03:53:22.853Z,8.44
2023-03-20T03:55:57.795Z,8.40
2023-03-20T03:58:31.495Z,8.30
2023-03-20T04:01:00.009Z,8.33
2023-03-20T04:03:33.070Z,8.42
2023-03-20T04:06:01.238Z,8.43
2023-03-20T04:08:27.847Z,8.37
2023-03-20T04:10:54.513Z,8.43
2023-03-20T04:13:21.097Z,8.42
2023-03-20T04:15:47.829Z,8.41
2023-03-20T04:18:19.489Z,8.34
2023-03-20T04:20:48.480Z,8.36
2023-03-20T04:23:16.671Z,8.34
2023-03-20T04:25:43.507Z,8.31
2023-03-20T04:28:11.916Z,8.32
2023-03-20T04:30:48.192Z,8.32
2023-03-20T04:33:26.625Z,8.37
2023-03-20T04:36:12.557Z,8.28
2023-03-20T04:38:40.559Z,8.27
2023-03-20T04:41:08.525Z,8.26
2023-03-20T04:43:35.508Z,8.29
2023-03-20T04:46:02.269Z,8.26
2023-03-20T04:48:29.286Z,8.22
2023-03-20T04:50:56.436Z,8.16
2023-03-20T04:53:29.384Z,7.99
2023-03-20T04:55:56.058Z,8.07
2023-03-20T04:58:23.753Z,8.06
2023-03-20T05:00:50.910Z,8.21
2023-03-20T05:03:17.755Z,8.25
2023-03-20T05:05:44.491Z,8.16
2023-03-20T05:08:11.388Z,8.12
2023-03-20T05:10:39.019Z,8.21
2023-03-20T05:13:28.539Z,8.05
2023-03-20T05:16:18.213Z,8.07
2023-03-20T05:18:57.872Z,8.06
2023-03-20T05:21:29.981Z,8.08
2023-03-20T05:24:12.113Z,8.05
2023-03-20T05:26:53.706Z,8.01
2023-03-20T05:29:43.458Z,8.00
2023-03-20T05:32:37.012Z,8.15
2023-03-20T05:35:21.569Z,8.13
2023-03-20T05:37:53.020Z,8.11
2023-03-20T05:40:36.952Z,8.00
2023-03-20T05:43:18.453Z,7.99
2023-03-20T05:45:51.211Z,8.01
2023-03-20T05:48:46.053Z,8.07
2023-03-20T05:51:31.435Z,8.05
2023-03-20T05:54:07.548Z,8.04
2023-03-20T05:56:52.684Z,7.97
2023-03-20T05:59:31.797Z,7.94
2023-03-20T06:02:17.505Z,7.96
2023-03-20T06:04:54.527Z,7.97
2023-03-20T06:07:27.168Z,7.89
2023-03-20T06:10:00.923Z,7.98
2023-03-20T06:12:29.754Z,8.03
2023-03-20T06:14:56.359Z,7.94
2023-03-20T06:17:23.461Z,8.00
2023-03-20T06:19:55.676Z,8.00
2023-03-20T06:22:22.491Z,8.04
2023-03-20T06:24:49.273Z,8.09
2023-03-20T06:27:16.195Z,8.13
2023-03-20T06:29:46.612Z,8.08
2023-03-20T06:32:17.784Z,8.12
2023-03-20T06:34:47.713Z,8.21
2023-03-20T06:37:14.768Z,8.24
2023-03-20T06:39:41.758Z,8.17
2023-03-20T06:42:15.077Z,8.14
2023-03-20T06:44:43.362Z,8.28
2023-03-20T06:47:15.673Z,8.32
2023-03-20T06:49:45.606Z,8.46
2023-03-20T06:52:19.326Z,8.46
2023-03-20T06:54:56.376Z,8.60
2023-03-20T06:57:23.130Z,8.63
2023-03-20T06:59:49.946Z,8.67
2023-03-20T07:02:17.025Z,8.84
2023-03-20T07:04:43.808Z,8.93
2023-03-20T07:07:10.663Z,9.02
2023-03-20T07:09:37.279Z,8.91
2023-03-20T07:12:05.127Z,8.81
2023-03-20T07:14:33.955Z,8.91
2023-03-20T07:17:04.799Z,8.81
2023-03-20T07:19:33.325Z,8.88
2023-03-20T07:22:03.030Z,8.88
2023-03-20T07:24:35.424Z,8.89
2023-03-20T07:27:02.248Z,9.12
2023-03-20T07:29:30.365Z,9.22
2023-03-20T07:31:58.000Z,9.14
2023-03-20T07:34:29.340Z,9.38
2023-03-20T07:36:56.757Z,9.59
2023-03-20T07:39:23.313Z,9.52
2023-03-20T07:42:03.617Z,9.51
2023-03-20T07:44:43.414Z,9.74
2023-03-20T07:47:11.395Z,9.74
2023-03-20T07:49:37.924Z,9.75
2023-03-20T07:52:04.583Z,9.93
2023-03-20T07:54:31.632Z,9.81
2023-03-20T07:56:58.295Z,9.88
2023-03-20T07:59:24.945Z,9.63
2023-03-20T08:01:52.389Z,9.75
2023-03-20T08:04:21.433Z,9.85
2023-03-20T08:06:48.125Z,9.64
2023-03-20T08:09:15.469Z,9.84
2023-03-20T08:11:42.508Z,9.89
2023-03-20T08:14:09.257Z,9.99
2023-03-20T08:16:35.871Z,10.16
2023-03-20T08:19:03.382Z,10.15
2023-03-20T08:21:31.679Z,10.27
2023-03-20T08:23:58.716Z,10.19
2023-03-20T08:26:28.314Z,10.23
2023-03-20T08:28:55.003Z,10.26
2023-03-20T08:31:21.626Z,10.23
2023-03-20T08:33:48.613Z,10.14
2023-03-20T08:36:16.308Z,10.40
2023-03-20T08:38:43.502Z,10.61
2023-03-20T08:41:10.606Z,10.78
2023-03-20T08:43:37.629Z,11.19
2023-03-20T08:46:05.185Z,11.18
2023-03-20T08:48:31.877Z,11.17
2023-03-20T08:50:58.494Z,11.39
2023-03-20T08:53:25.357Z,11.15
2023-03-20T08:55:52.506Z,11.05
2023-03-20T08:58:20.032Z,11.19
2023-03-20T09:00:46.920Z,11.09
2023-03-20T09:03:15.168Z,11.25
2023-03-20T09:05:44.848Z,11.23
2023-03-20T09:08:11.787Z,11.00
2023-03-20T09:10:38.624Z,10.97
2023-03-20T09:13:23.504Z,10.99
2023-03-20T09:15:53.280Z,11.01
2023-03-20T09:18:21.262Z,11.23
2023-03-20T09:20:49.023Z,11.55
2023-03-20T09:23:15.991Z,11.32
2023-03-20T09:25:42.908Z,11.14
2023-03-20T09:28:09.556Z,10.93
2023-03-20T09:30:36.764Z,10.93
2023-03-20T09:33:03.743Z,11.20
2023-03-20T09:35:31.503Z,11.11
2023-03-20T09:37:58.215Z,11.44
2023-03-20T09:40:37.038Z,11.39
2023-03-20T09:43:28.245Z,11.37
2023-03-20T09:46:07.063Z,11.43
2023-03-20T09:49:25.585Z,11.44
2023-03-20T09:51:56.671Z,11.57
2023-03-20T09:54:29.034Z,11.29
2023-03-20T09:56:57.290Z,11.48
2023-03-20T09:59:26.210Z,11.47
2023-03-20T10:02:16.716Z,11.88
2023-03-20T10:04:44.276Z,11.81
2023-03-20T10:07:15.596Z,11.82
2023-03-20T10:09:42.864Z,11.51
2023-03-20T10:12:21.510Z,11.81
2023-03-20T10:15:01.369Z,11.75
2023-03-20T10:17:47.272Z,11.82
2023-03-20T10:20:21.357Z,11.69
2023-03-20T10:22:57.956Z,11.53
2023-03-20T10:25:30.613Z,11.60
2023-03-20T10:28:13.388Z,11.37
2023-03-20T10:31:07.768Z,11.48
2023-03-20T10:33:37.041Z,11.85
2023-03-20T10:36:21.955Z,11.89
2023-03-20T10:39:03.733Z,12.50
2023-03-20T10:41:35.098Z,12.66
2023-03-20T10:44:02.420Z,12.56
2023-03-20T10:46:35.628Z,12.97
2023-03-20T10:49:08.865Z,12.92
2023-03-20T10:51:46.589Z,13.01
2023-03-20T10:54:35.382Z,13.83
2023-03-20T10:57:04.553Z,13.87
2023-03-20T10:59:39.045Z,12.91
2023-03-20T11:02:13.446Z,13.29
2023-03-20T11:04:40.119Z,13.09
2023-03-20T11:07:22.080Z,13.47
2023-03-20T11:10:11.282Z,13.71
2023-03-20T11:12:41.344Z,13.20
2023-03-20T11:15:33.889Z,12.89
2023-03-20T11:18:03.495Z,13.26
2023-03-20T11:20:50.549Z,13.22
2023-03-20T11:23:24.091Z,13.15
2023-03-20T11:25:59.488Z,12.86
2023-03-20T11:28:40.409Z,13.16
2023-03-20T11:31:18.574Z,13.00
2023-03-20T11:34:14.465Z,12.79
2023-03-20T11:37:08.704Z,12.62
2023-03-20T11:39:38.257Z,12.88
2023-03-20T11:42:23.678Z,12.95
2023-03-20T11:44:59.036Z,12.77
2023-03-20T11:47:27.747Z,12.77
2023-03-20T11:50:00.296Z,12.72
2023-03-20T11:52:39.906Z,12.88
2023-03-20T11:55:29.814Z,12.94
2023-03-20T11:58:00.855Z,12.52
2023-03-20T12:00:38.663Z,12.53
2023-03-20T12:03:37.064Z,12.54
2023-03-20T12:06:07.002Z,12.46
2023-03-20T12:08:36.920Z,12.62
2023-03-20T12:11:22.132Z,12.65
2023-03-20T12:13:51.468Z,12.46
2023-03-20T12:16:21.786Z,12.31
2023-03-20T12:18:54.622Z,12.26
2023-03-20T12:21:24.420Z,12.18
2023-03-20T12:24:04.577Z,12.39
2023-03-20T12:26:57.125Z,12.27
2023-03-20T12:29:30.501Z,12.29
2023-03-20T12:32:03.517Z,12.36
2023-03-20T12:34:51.411Z,12.52
2023-03-20T12:37:18.606Z,12.27
2023-03-20T12:39:55.305Z,12.17
2023-03-20T12:42:37.315Z,12.28
2023-03-20T12:45:11.360Z,11.89
2023-03-20T12:47:48.998Z,12.19
2023-03-20T12:50:36.280Z,12.11
2023-03-20T12:53:34.500Z,12.27
2023-03-20T12:56:22.143Z,12.21
2023-03-20T12:59:06.842Z,12.01
2023-03-20T13:01:56.040Z,11.92
2023-03-20T13:04:51.062Z,12.20
2023-03-20T13:07:20.604Z,11.86
2023-03-20T13:10:21.297Z,12.37
2023-03-20T13:13:15.550Z,12.12
2023-03-20T13:16:00.728Z,12.00
2023-03-20T13:18:49.900Z,12.25
2023-03-20T13:21:24.667Z,12.48
2023-03-20T13:24:17.837Z,12.18
2023-03-20T13:27:16.169Z,11.92
2023-03-20T13:30:09.280Z,12.01
2023-03-20T13:32:52.646Z,11.82
2023-03-20T13:35:32.982Z,12.07
2023-03-20T13:38:12.572Z,12.13
2023-03-20T13:40:44.060Z,12.04
2023-03-20T13:43:24.034Z,12.04
2023-03-20T13:46:14.606Z,11.42
2023-03-20T13:48:43.094Z,11.34
2023-03-20T13:51:31.469Z,11.26
2023-03-20T13:54:06.868Z,11.32
2023-03-20T13:56:44.423Z,11.54
2023-03-20T13:59:29.880Z,11.42
2023-03-20T14:02:22.311Z,11.30
2023-03-20T14:04:58.221Z,11.05
2023-03-20T14:07:37.158Z,11.02
2023-03-20T14:10:22.114Z,10.68
2023-03-20T14:13:01.542Z,10.89
2023-03-20T14:15:33.097Z,10.48
2023-03-20T14:18:04.966Z,10.65
2023-03-20T14:20:37.121Z,10.58
2023-03-20T14:23:05.083Z,10.53
2023-03-20T14:25:42.195Z,10.55
2023-03-20T14:28:12.808Z,10.63
2023-03-20T14:30:50.147Z,10.73
2023-03-20T14:33:16.867Z,10.72
2023-03-20T14:35:44.894Z,10.63
2023-03-20T14:38:11.468Z,10.79
2023-03-20T14:40:53.645Z,10.83
2023-03-20T14:43:36.098Z,10.55
2023-03-20T14:46:41.196Z,10.54
2023-03-20T14:49:36.852Z,10.85
2023-03-20T14:52:25.077Z,10.70
2023-03-20T14:54:54.040Z,10.79
2023-03-20T14:57:48.675Z,10.83
2023-03-20T15:00:30.899Z,10.59
2023-03-20T15:03:06.914Z,10.77
2023-03-20T15:05:36.828Z,10.59
2023-03-20T15:08:11.087Z,10.43
2023-03-20T15:10:46.881Z,10.32
2023-03-20T15:13:16.112Z,10.39
2023-03-20T15:16:04.020Z,10.37
2023-03-20T15:18:38.213Z,10.51
2023-03-20T15:21:14.799Z,10.47
2023-03-20T15:23:46.360Z,10.48
2023-03-20T15:26:18.186Z,10.48
2023-03-20T15:28:46.402Z,10.51
2023-03-20T15:31:30.354Z,10.55
2023-03-20T15:33:57.957Z,10.53
2023-03-20T15:36:28.683Z,10.60
2023-03-20T15:39:05.539Z,10.54
2023-03-20T15:41:35.175Z,10.38
2023-03-20T15:44:16.800Z,10.40
2023-03-20T15:47:23.168Z,10.51
2023-03-20T15:49:53.532Z,10.39
2023-03-20T15:52:31.708Z,10.40
2023-03-20T15:55:02.784Z,10.37
2023-03-20T15:57:38.036Z,10.49
2023-03-20T16:00:10.211Z,10.48
2023-03-20T16:02:37.853Z,10.49
2023-03-20T16:05:05.860Z,10.36
2023-03-20T16:07:33.381Z,10.29
2023-03-20T16:10:00.558Z,10.31
2023-03-20T16:12:27.569Z,10.29
2023-03-20T16:14:55.850Z,10.33
2023-03-20T16:17:25.141Z,10.31
2023-03-20T16:19:52.092Z,10.25
2023-03-20T16:22:26.124Z,10.16
2023-03-20T16:24:58.121Z,10.24
2023-03-20T16:27:33.935Z,10.11
2023-03-20T16:30:16.100Z,10.09
2023-03-20T16:32:47.278Z,9.99
2023-03-20T16:35:29.804Z,10.05
2023-03-20T16:38:00.152Z,10.15
2023-03-20T16:40:36.102Z,10.08
2023-03-20T16:43:12.071Z,9.92
2023-03-20T16:45:44.320Z,9.87
2023-03-20T16:48:13.673Z,9.89
2023-03-20T16:50:44.874Z,9.92
2023-03-20T16:53:15.569Z,9.81
2023-03-20T16:55:45.082Z,9.82
2023-03-20T16:58:28.517Z,9.82
2023-03-20T17:01:01.820Z,9.88
2023-03-20T17:03:36.489Z,9.89
2023-03-20T17:06:29.412Z,9.81
2023-03-20T17:09:13.594Z,9.74
2023-03-20T17:11:44.689Z,9.74
2023-03-20T17:14:11.380Z,9.74
2023-03-20T17:16:40.270Z,9.86
2023-03-20T17:19:14.600Z,9.73
2023-03-20T17:21:41.707Z,9.71
2023-03-20T17:24:09.489Z,9.74
2023-03-20T17:26:36.272Z,9.59
2023-03-20T17:29:03.496Z,9.53
2023-03-20T17:31:30.584Z,9.63
2023-03-20T17:33:57.557Z,9.60
2023-03-20T17:36:30.296Z,9.57
2023-03-20T17:38:58.256Z,9.58
2023-03-20T17:41:25.425Z,9.71
2023-03-20T17:43:52.433Z,9.60
2023-03-20T17:46:20.805Z,9.55
2023-03-20T17:48:48.935Z,9.50
2023-03-20T17:51:15.648Z,9.38
2023-03-20T17:53:42.271Z,9.37
2023-03-20T17:56:13.880Z,9.39
2023-03-20T17:58:44.654Z,9.43
2023-03-20T18:01:12.365Z,9.45
2023-03-20T18:03:39.384Z,9.44
2023-03-20T18:06:07.394Z,9.41
2023-03-20T18:08:34.149Z,9.31
2023-03-20T18:11:00.875Z,9.29
2023-03-20T18:13:28.673Z,9.32
2023-03-20T18:15:58.412Z,9.21
2023-03-20T18:18:25.944Z,9.28
2023-03-20T18:20:54.958Z,9.12
2023-03-20T18:23:22.026Z,9.25
2023-03-20T18:25:49.010Z,9.19
2023-03-20T18:28:22.862Z,9.14
2023-03-20T18:30:50.743Z,9.22
2023-03-20T18:33:17.966Z,9.15
2023-03-20T18:35:45.179Z,9.18
2023-03-20T18:38:16.424Z,9.22
2023-03-20T18:40:47.312Z,9.15
2023-03-20T18:43:14.095Z,9.11
2023-03-20T18:45:41.238Z,9.10
2023-03-20T18:48:12.308Z,9.11
2023-03-20T18:50:41.701Z,9.13
2023-03-20T18:53:09.942Z,9.13
2023-03-20T18:55:38.278Z,9.07
2023-03-20T18:58:06.331Z,9.08
2023-03-20T19:00:40.285Z,9.10
2023-03-20T19:03:07.958Z,9.13
2023-03-20T19:05:36.016Z,9.11
2023-03-20T19:08:03.537Z,9.07
2023-03-20T19:10:36.916Z,9.04
2023-03-20T19:13:05.525Z,9.10
2023-03-20T19:15:35.747Z,9.03
2023-03-20T19:18:07.628Z,9.05
2023-03-20T19:20:36.140Z,9.00
2023-03-20T19:23:04.912Z,8.98
2023-03-20T19:25:32.005Z,9.02
2023-03-20T19:27:59.795Z,9.00
2023-03-20T19:30:44.817Z,8.93
2023-03-20T19:33:11.595Z,9.05
2023-03-20T19:35:58.901Z,8.96
2023-03-20T19:38:24.931Z,8.94
2023-03-20T19:40:55.550Z,8.95
2023-03-20T19:43:23.280Z,8.97
2023-03-20T19:45:56.476Z,9.00
2023-03-20T19:48:43.315Z,8.96
2023-03-20T19:51:26.903Z,8.96
2023-03-20T19:53:54.846Z,8.96
2023-03-20T19:56:23.170Z,8.97
2023-03-20T19:58:50.016Z,8.92
2023-03-20T20:01:19.769Z,8.93
2023-03-20T20:03:47.802Z,8.95
2023-03-20T20:06:14.956Z,8.98
2023-03-20T20:08:48.271Z,8.93
2023-03-20T20:11:19.499Z,8.89
2023-03-20T20:16:35.409Z,8.92
2023-03-20T20:19:02.560Z,8.86
2023-03-20T20:24:18.902Z,8.87
2023-03-20T20:27:00.010Z,8.84
2023-03-20T20:29:34.212Z,8.82
2023-03-20T20:32:01.190Z,8.83
2023-03-20T20:40:04.360Z,8.81
2023-03-20T20:42:31.243Z,8.85
2023-03-20T20:44:57.858Z,8.79
2023-03-20T20:47:24.517Z,8.82
2023-03-20T20:49:51.252Z,8.78
2023-03-20T20:52:18.034Z,8.75
2023-03-20T20:54:44.692Z,8.70
2023-03-20T20:57:12.347Z,8.73
2023-03-20T20:59:40.486Z,8.67
2023-03-20T21:02:12.328Z,8.60
2023-03-20T21:04:41.051Z,8.58
2023-03-20T21:07:11.754Z,8.56
2023-03-20T21:09:39.247Z,8.64
2023-03-20T21:12:06.483Z,8.55
2023-03-20T21:14:33.194Z,8.55
2023-03-20T21:17:02.620Z,8.57
2023-03-20T21:19:40.891Z,8.57
2023-03-20T21:22:09.860Z,8.60
2023-03-20T21:24:36.954Z,8.57
2023-03-20T21:27:06.864Z,8.54
2023-03-20T21:29:34.162Z,8.52
2023-03-20T21:32:01.161Z,8.57
2023-03-20T21:34:29.065Z,8.52
2023-03-20T21:36:57.884Z,8.55
2023-03-20T21:39:28.550Z,8.49
2023-03-20T21:41:55.256Z,8.54
2023-03-20T21:44:59.856Z,8.53
2023-03-20T21:47:58.627Z,8.51
2023-03-20T21:53:19.515Z,8.52
2023-03-20T21:59:03.796Z,8.44
2023-03-20T22:04:51.103Z,8.47
2023-03-20T22:07:23.905Z,8.46
2023-03-20T22:13:03.543Z,8.43
2023-03-20T22:15:33.939Z,8.45
2023-03-20T22:21:21.858Z,8.50
2023-03-20T22:24:10.429Z,8.51
2023-03-20T22:43:31.894Z,8.66
2023-03-20T22:45:52.728Z,8.71
2023-03-20T22:48:21.825Z,8.70
2023-03-20T22:50:50.105Z,8.70
2023-03-20T22:53:17.912Z,8.76
2023-03-20T22:55:46.791Z,8.73
2023-03-20T22:58:14.803Z,8.82
2023-03-20T23:00:42.696Z,8.76
2023-03-20T23:03:22.302Z,8.78
2023-03-20T23:05:57.063Z,8.86
2023-03-20T23:08:24.783Z,8.85
2023-03-20T23:10:51.719Z,8.82
2023-03-20T23:13:20.424Z,8.89
2023-03-20T23:15:47.473Z,8.85
2023-03-20T23:18:15.233Z,8.88
2023-03-20T23:20:42.323Z,8.85
2023-03-20T23:23:09.455Z,8.84
2023-03-20T23:25:39.776Z,8.79
2023-03-20T23:28:09.514Z,8.84
2023-03-20T23:31:07.417Z,8.78
2023-03-20T23:33:23.128Z,8.82
2023-03-20T23:36:01.152Z,8.74
2023-03-20T23:38:31.984Z,8.74
2023-03-20T23:40:58.612Z,8.81
2023-03-20T23:43:25.571Z,8.84
2023-03-20T23:45:52.189Z,8.87
2023-03-20T23:48:19.619Z,8.85
2023-03-20T23:50:53.095Z,8.84
2023-03-20T23:53:21.317Z,8.84
2023-03-20T23:55:50.802Z,8.86
2023-03-20T23:58:17.870Z,8.85
